sensor_id;sensor_type;location;lat;lon;timestamp;pressure;altitude;pressure_sealevel;temperature;humidity
64200;BME280;50516;52.272;5.136;2023-04-19T00:00:07;102831.09;;;10.17;71.61
64200;BME280;50516;52.272;5.136;2023-04-19T00:02:33;102834.94;;;10.16;71.78
64200;BME280;50516;52.272;5.136;2023-04-19T00:04:59;102833.91;;;10.10;72.32
64200;BME280;50516;52.272;5.136;2023-04-19T00:07:24;102832.28;;;9.96;72.51
64200;BME280;50516;52.272;5.136;2023-04-19T00:09:49;102837.13;;;10.00;72.82
64200;BME280;50516;52.272;5.136;2023-04-19T00:12:15;102840.75;;;9.94;73.21
64200;BME280;50516;52.272;5.136;2023-04-19T00:14:40;102834.03;;;9.90;73.69
64200;BME280;50516;52.272;5.136;2023-04-19T00:17:05;102837.41;;;9.85;73.60
64200;BME280;50516;52.272;5.136;2023-04-19T00:19:31;102836.16;;;9.81;73.77
64200;BME280;50516;52.272;5.136;2023-04-19T00:21:56;102842.94;;;9.79;74.12
64200;BME280;50516;52.272;5.136;2023-04-19T00:24:21;102836.28;;;10.00;73.58
64200;BME280;50516;52.272;5.136;2023-04-19T00:26:46;102832.28;;;9.96;73.51
64200;BME280;50516;52.272;5.136;2023-04-19T00:29:12;102829.16;;;9.92;73.91
64200;BME280;50516;52.272;5.136;2023-04-19T00:31:37;102834.56;;;10.05;73.64
64200;BME280;50516;52.272;5.136;2023-04-19T00:34:03;102828.72;;;9.95;73.92
64200;BME280;50516;52.272;5.136;2023-04-19T00:36:29;102831.41;;;10.02;73.50
64200;BME280;50516;52.272;5.136;2023-04-19T00:38:54;102831.63;;;10.00;73.76
64200;BME280;50516;52.272;5.136;2023-04-19T00:41:20;102830.63;;;9.88;74.19
64200;BME280;50516;52.272;5.136;2023-04-19T00:43:45;102820.31;;;9.90;74.43
64200;BME280;50516;52.272;5.136;2023-04-19T00:46:10;102816.91;;;9.88;74.82
64200;BME280;50516;52.272;5.136;2023-04-19T00:48:36;102820.31;;;9.90;74.54
64200;BME280;50516;52.272;5.136;2023-04-19T00:51:01;102810.44;;;9.76;75.25
64200;BME280;50516;52.272;5.136;2023-04-19T00:53:27;102809.81;;;9.80;75.50
64200;BME280;50516;52.272;5.136;2023-04-19T00:55:56;102807.50;;;9.77;75.57
64200;BME280;50516;52.272;5.136;2023-04-19T00:58:24;102809.59;;;9.75;75.91
64200;BME280;50516;52.272;5.136;2023-04-19T01:00:49;102805.41;;;9.73;75.68
64200;BME280;50516;52.272;5.136;2023-04-19T01:03:14;102803.09;;;9.69;76.18
64200;BME280;50516;52.272;5.136;2023-04-19T01:05:40;102803.44;;;9.80;76.37
64200;BME280;50516;52.272;5.136;2023-04-19T01:08:06;102812.50;;;9.87;75.59
64200;BME280;50516;52.272;5.136;2023-04-19T01:10:32;102812.97;;;9.77;76.42
64200;BME280;50516;52.272;5.136;2023-04-19T01:12:58;102810.81;;;9.86;76.12
64200;BME280;50516;52.272;5.136;2023-04-19T01:15:23;102803.00;;;9.83;76.35
64200;BME280;50516;52.272;5.136;2023-04-19T01:17:48;102810.81;;;9.86;76.20
64200;BME280;50516;52.272;5.136;2023-04-19T01:20:14;102807.06;;;9.80;76.07
64200;BME280;50516;52.272;5.136;2023-04-19T01:22:39;102805.22;;;9.67;76.82
64200;BME280;50516;52.272;5.136;2023-04-19T01:25:05;102808.34;;;9.71;76.84
64200;BME280;50516;52.272;5.136;2023-04-19T01:27:31;102807.06;;;9.74;76.74
64200;BME280;50516;52.272;5.136;2023-04-19T01:29:56;102809.63;;;9.68;77.53
64200;BME280;50516;52.272;5.136;2023-04-19T01:32:22;102806.19;;;9.80;77.00
64200;BME280;50516;52.272;5.136;2023-04-19T01:34:48;102799.03;;;9.79;77.09
64200;BME280;50516;52.272;5.136;2023-04-19T01:37:13;102803.44;;;9.80;77.24
64200;BME280;50516;52.272;5.136;2023-04-19T01:39:38;102809.19;;;9.72;77.62
64200;BME280;50516;52.272;5.136;2023-04-19T01:42:04;102798.19;;;9.78;77.12
64200;BME280;50516;52.272;5.136;2023-04-19T01:44:29;102807.03;;;9.87;76.93
64200;BME280;50516;52.272;5.136;2023-04-19T01:46:55;102810.22;;;9.77;77.66
64200;BME280;50516;52.272;5.136;2023-04-19T01:49:20;102817.41;;;9.72;77.89
64200;BME280;50516;52.272;5.136;2023-04-19T01:51:46;102807.97;;;9.67;78.01
64200;BME280;50516;52.272;5.136;2023-04-19T01:54:11;102800.53;;;9.75;77.80
64200;BME280;50516;52.272;5.136;2023-04-19T01:56:36;102806.59;;;9.90;77.57
64200;BME280;50516;52.272;5.136;2023-04-19T01:59:02;102797.00;;;9.67;78.18
64200;BME280;50516;52.272;5.136;2023-04-19T02:01:28;102799.09;;;9.72;78.57
64200;BME280;50516;52.272;5.136;2023-04-19T02:03:53;102799.66;;;9.81;78.09
64200;BME280;50516;52.272;5.136;2023-04-19T02:06:19;102807.03;;;9.87;77.81
64200;BME280;50516;52.272;5.136;2023-04-19T02:08:44;102807.63;;;9.89;77.75
64200;BME280;50516;52.272;5.136;2023-04-19T02:11:11;102801.09;;;9.90;78.08
64200;BME280;50516;52.272;5.136;2023-04-19T02:13:40;102805.25;;;9.99;77.51
64200;BME280;50516;52.272;5.136;2023-04-19T02:16:06;102803.13;;;10.01;77.65
64200;BME280;50516;52.272;5.136;2023-04-19T02:18:32;102810.94;;;9.98;77.77
64200;BME280;50516;52.272;5.136;2023-04-19T02:21:03;102811.75;;;10.05;77.68
64200;BME280;50516;52.272;5.136;2023-04-19T02:23:28;102808.94;;;10.18;77.19
64200;BME280;50516;52.272;5.136;2023-04-19T02:25:54;102808.19;;;10.04;77.63
64200;BME280;50516;52.272;5.136;2023-04-19T02:28:19;102809.25;;;10.03;77.71
64200;BME280;50516;52.272;5.136;2023-04-19T02:30:44;102811.09;;;10.10;77.79
64200;BME280;50516;52.272;5.136;2023-04-19T02:33:10;102810.94;;;10.04;77.78
64200;BME280;50516;52.272;5.136;2023-04-19T02:35:35;102813.41;;;10.13;77.63
64200;BME280;50516;52.272;5.136;2023-04-19T02:38:01;102813.22;;;10.08;77.92
64200;BME280;50516;52.272;5.136;2023-04-19T02:40:28;102811.06;;;10.16;77.23
64200;BME280;50516;52.272;5.136;2023-04-19T02:42:53;102810.00;;;10.17;77.80
64200;BME280;50516;52.272;5.136;2023-04-19T02:45:18;102813.91;;;10.03;78.02
64200;BME280;50516;52.272;5.136;2023-04-19T02:47:44;102817.03;;;10.07;78.05
64200;BME280;50516;52.272;5.136;2023-04-19T02:50:11;102822.63;;;9.93;78.49
64200;BME280;50516;52.272;5.136;2023-04-19T02:52:36;102830.38;;;10.03;78.39
64200;BME280;50516;52.272;5.136;2023-04-19T02:55:02;102823.31;;;10.14;77.71
64200;BME280;50516;52.272;5.136;2023-04-19T02:57:28;102826.28;;;10.12;78.05
64200;BME280;50516;52.272;5.136;2023-04-19T02:59:54;102822.97;;;10.03;78.40
64200;BME280;50516;52.272;5.136;2023-04-19T03:02:19;102830.94;;;10.12;78.06
64200;BME280;50516;52.272;5.136;2023-04-19T03:04:44;102830.78;;;10.32;77.69
64200;BME280;50516;52.272;5.136;2023-04-19T03:07:11;102826.59;;;10.36;77.17
64200;BME280;50516;52.272;5.136;2023-04-19T03:09:37;102831.28;;;10.22;77.70
64200;BME280;50516;52.272;5.136;2023-04-19T03:12:02;102823.25;;;10.20;77.86
64200;BME280;50516;52.272;5.136;2023-04-19T03:14:28;102817.78;;;10.20;77.52
64200;BME280;50516;52.272;5.136;2023-04-19T03:16:53;102823.25;;;10.20;77.27
64200;BME280;50516;52.272;5.136;2023-04-19T03:19:18;102811.94;;;10.10;78.34
64200;BME280;50516;52.272;5.136;2023-04-19T03:21:44;102813.31;;;10.26;77.55
64200;BME280;50516;52.272;5.136;2023-04-19T03:24:09;102812.50;;;10.19;77.92
64200;BME280;50516;52.272;5.136;2023-04-19T03:26:35;102815.50;;;10.17;77.64
64200;BME280;50516;52.272;5.136;2023-04-19T03:29:00;102818.25;;;10.11;78.12
64200;BME280;50516;52.272;5.136;2023-04-19T03:31:26;102808.59;;;10.08;78.42
64200;BME280;50516;52.272;5.136;2023-04-19T03:33:51;102817.28;;;9.98;78.40
64200;BME280;50516;52.272;5.136;2023-04-19T03:36:16;102813.06;;;9.96;78.83
64200;BME280;50516;52.272;5.136;2023-04-19T03:38:42;102811.16;;;9.96;78.65
64200;BME280;50516;52.272;5.136;2023-04-19T03:41:22;102812.59;;;10.05;78.64
64200;BME280;50516;52.272;5.136;2023-04-19T03:43:48;102818.13;;;9.99;78.62
64200;BME280;50516;52.272;5.136;2023-04-19T03:46:13;102810.34;;;9.96;78.60
64200;BME280;50516;52.272;5.136;2023-04-19T03:48:38;102816.03;;;9.94;79.04
64200;BME280;50516;52.272;5.136;2023-04-19T03:51:04;102816.34;;;9.79;79.64
64200;BME280;50516;52.272;5.136;2023-04-19T03:53:29;102817.34;;;9.85;79.45
64200;BME280;50516;52.272;5.136;2023-04-19T03:55:54;102808.31;;;9.78;79.41
64200;BME280;50516;52.272;5.136;2023-04-19T03:58:21;102809.38;;;9.77;79.40
64200;BME280;50516;52.272;5.136;2023-04-19T04:00:46;102815.13;;;9.68;79.61
64200;BME280;50516;52.272;5.136;2023-04-19T04:03:12;102816.59;;;9.71;79.34
64200;BME280;50516;52.272;5.136;2023-04-19T04:05:37;102811.72;;;9.73;79.28
64200;BME280;50516;52.272;5.136;2023-04-19T04:08:02;102810.88;;;9.73;79.16
64200;BME280;50516;52.272;5.136;2023-04-19T04:10:28;102811.13;;;9.64;79.67
64200;BME280;50516;52.272;5.136;2023-04-19T04:12:53;102813.06;;;9.57;79.53
64200;BME280;50516;52.272;5.136;2023-04-19T04:15:18;102815.53;;;9.65;79.42
64200;BME280;50516;52.272;5.136;2023-04-19T04:17:44;102816.88;;;9.56;79.19
64200;BME280;50516;52.272;5.136;2023-04-19T04:20:09;102819.66;;;9.49;79.64
64200;BME280;50516;52.272;5.136;2023-04-19T04:22:40;102812.06;;;9.45;79.45
64200;BME280;50516;52.272;5.136;2023-04-19T04:25:07;102816.91;;;9.43;79.86
64200;BME280;50516;52.272;5.136;2023-04-19T04:27:32;102818.00;;;9.35;80.11
64200;BME280;50516;52.272;5.136;2023-04-19T04:29:58;102812.50;;;9.28;79.81
64200;BME280;50516;52.272;5.136;2023-04-19T04:32:25;102807.69;;;9.30;80.05
64200;BME280;50516;52.272;5.136;2023-04-19T04:34:51;102807.69;;;9.30;79.98
64200;BME280;50516;52.272;5.136;2023-04-19T04:37:16;102814.41;;;9.28;79.52
64200;BME280;50516;52.272;5.136;2023-04-19T04:39:42;102813.59;;;9.27;79.93
64200;BME280;50516;52.272;5.136;2023-04-19T04:42:07;102810.84;;;9.27;79.52
64200;BME280;50516;52.272;5.136;2023-04-19T04:44:34;102824.13;;;9.30;79.58
64200;BME280;50516;52.272;5.136;2023-04-19T04:46:59;102805.94;;;9.43;78.86
64200;BME280;50516;52.272;5.136;2023-04-19T04:49:25;102808.91;;;9.35;78.47
64200;BME280;50516;52.272;5.136;2023-04-19T04:51:50;102809.38;;;9.18;79.06
64200;BME280;50516;52.272;5.136;2023-04-19T04:54:15;102811.25;;;9.31;78.92
64200;BME280;50516;52.272;5.136;2023-04-19T04:56:41;102823.97;;;9.05;79.11
64200;BME280;50516;52.272;5.136;2023-04-19T04:59:06;102816.78;;;9.11;78.83
64200;BME280;50516;52.272;5.136;2023-04-19T05:01:32;102814.91;;;9.05;78.96
64200;BME280;50516;52.272;5.136;2023-04-19T05:03:57;102813.84;;;9.06;78.67
64200;BME280;50516;52.272;5.136;2023-04-19T05:06:22;102821.84;;;9.01;78.64
64200;BME280;50516;52.272;5.136;2023-04-19T05:08:48;102819.34;;;8.92;78.58
64200;BME280;50516;52.272;5.136;2023-04-19T05:11:13;102816.59;;;8.99;77.99
64200;BME280;50516;52.272;5.136;2023-04-19T05:13:38;102812.81;;;8.93;78.04
64200;BME280;50516;52.272;5.136;2023-04-19T05:16:04;102809.22;;;9.00;77.78
64200;BME280;50516;52.272;5.136;2023-04-19T05:18:30;102817.03;;;8.89;77.63
64200;BME280;50516;52.272;5.136;2023-04-19T05:20:56;102808.59;;;8.91;77.13
64200;BME280;50516;52.272;5.136;2023-04-19T05:23:21;102817.44;;;8.93;76.83
64200;BME280;50516;52.272;5.136;2023-04-19T05:25:46;102811.13;;;8.92;76.72
64200;BME280;50516;52.272;5.136;2023-04-19T05:28:12;102819.75;;;8.89;76.15
64200;BME280;50516;52.272;5.136;2023-04-19T05:30:37;102819.75;;;8.89;76.15
64200;BME280;50516;52.272;5.136;2023-04-19T05:33:03;102814.09;;;8.84;75.70
64200;BME280;50516;52.272;5.136;2023-04-19T05:35:29;102818.28;;;9.00;75.14
64200;BME280;50516;52.272;5.136;2023-04-19T05:37:54;102815.53;;;9.07;73.91
64200;BME280;50516;52.272;5.136;2023-04-19T05:40:20;102818.47;;;9.05;73.80
64200;BME280;50516;52.272;5.136;2023-04-19T05:42:46;102809.81;;;9.15;73.05
64200;BME280;50516;52.272;5.136;2023-04-19T05:45:12;102816.56;;;9.19;73.11
64200;BME280;50516;52.272;5.136;2023-04-19T05:47:39;102822.28;;;9.11;72.25
64200;BME280;50516;52.272;5.136;2023-04-19T05:50:05;102813.19;;;9.24;71.72
64200;BME280;50516;52.272;5.136;2023-04-19T05:52:30;102808.75;;;9.23;71.63
64200;BME280;50516;52.272;5.136;2023-04-19T05:54:56;102808.13;;;9.21;70.88
64200;BME280;50516;52.272;5.136;2023-04-19T05:57:22;102815.28;;;9.22;70.13
64200;BME280;50516;52.272;5.136;2023-04-19T05:59:47;102815.09;;;9.10;69.76
64200;BME280;50516;52.272;5.136;2023-04-19T06:02:12;102811.09;;;9.06;69.43
64200;BME280;50516;52.272;5.136;2023-04-19T06:04:37;102828.19;;;9.08;68.08
64200;BME280;50516;52.272;5.136;2023-04-19T06:07:03;102820.81;;;9.02;68.06
64200;BME280;50516;52.272;5.136;2023-04-19T06:09:28;102826.72;;;8.99;67.23
64200;BME280;50516;52.272;5.136;2023-04-19T06:11:53;102818.22;;;9.20;67.29
64200;BME280;50516;52.272;5.136;2023-04-19T06:14:19;102821.53;;;9.49;66.05
64200;BME280;50516;52.272;5.136;2023-04-19T06:16:44;102830.38;;;9.58;64.29
64200;BME280;50516;52.272;5.136;2023-04-19T06:19:10;102822.13;;;9.51;63.76
64200;BME280;50516;52.272;5.136;2023-04-19T06:21:35;102836.44;;;9.66;63.17
64200;BME280;50516;52.272;5.136;2023-04-19T06:24:00;102833.66;;;9.73;62.60
64200;BME280;50516;52.272;5.136;2023-04-19T06:26:26;102825.63;;;9.78;62.55
64200;BME280;50516;52.272;5.136;2023-04-19T06:28:51;102833.44;;;9.75;61.73
64200;BME280;50516;52.272;5.136;2023-04-19T06:31:17;102832.31;;;9.89;62.11
64200;BME280;50516;52.272;5.136;2023-04-19T06:33:42;102829.16;;;9.92;61.84
64200;BME280;50516;52.272;5.136;2023-04-19T06:36:08;102836.50;;;9.98;61.88
64200;BME280;50516;52.272;5.136;2023-04-19T06:38:34;102827.44;;;9.91;61.12
64200;BME280;50516;52.272;5.136;2023-04-19T06:40:59;102831.06;;;9.85;61.08
64200;BME280;50516;52.272;5.136;2023-04-19T06:43:25;102835.94;;;9.83;60.57
64200;BME280;50516;52.272;5.136;2023-04-19T06:46:00;102843.13;;;9.84;59.96
64200;BME280;50516;52.272;5.136;2023-04-19T06:48:26;102835.06;;;9.89;59.78
64200;BME280;50516;52.272;5.136;2023-04-19T06:50:52;102835.16;;;10.08;59.16
64200;BME280;50516;52.272;5.136;2023-04-19T06:53:17;102841.94;;;10.05;59.26
64200;BME280;50516;52.272;5.136;2023-04-19T06:55:43;102826.75;;;10.02;58.98
64200;BME280;50516;52.272;5.136;2023-04-19T06:58:09;102832.47;;;10.39;59.06
64200;BME280;50516;52.272;5.136;2023-04-19T07:00:37;102840.88;;;10.45;57.85
64200;BME280;50516;52.272;5.136;2023-04-19T07:03:02;102836.63;;;10.49;57.00
64200;BME280;50516;52.272;5.136;2023-04-19T07:05:29;102839.09;;;10.57;56.63
64200;BME280;50516;52.272;5.136;2023-04-19T07:07:54;102843.59;;;10.76;56.27
64200;BME280;50516;52.272;5.136;2023-04-19T07:10:20;102842.78;;;10.44;55.32
64200;BME280;50516;52.272;5.136;2023-04-19T07:12:45;102831.03;;;10.62;55.75
64200;BME280;50516;52.272;5.136;2023-04-19T07:15:11;102839.13;;;10.82;54.46
64200;BME280;50516;52.272;5.136;2023-04-19T07:17:36;102846.41;;;10.70;54.79
64200;BME280;50516;52.272;5.136;2023-04-19T07:20:03;102841.13;;;10.68;54.00
64200;BME280;50516;52.272;5.136;2023-04-19T07:22:30;102842.41;;;10.66;53.36
64200;BME280;50516;52.272;5.136;2023-04-19T07:24:56;102846.28;;;10.83;53.75
64200;BME280;50516;52.272;5.136;2023-04-19T07:27:21;102831.94;;;10.81;52.85
64200;BME280;50516;52.272;5.136;2023-04-19T07:29:46;102843.59;;;10.76;51.42
64200;BME280;50516;52.272;5.136;2023-04-19T07:32:12;102846.56;;;10.75;50.90
64200;BME280;50516;52.272;5.136;2023-04-19T07:34:40;102840.09;;;10.88;50.55
64200;BME280;50516;52.272;5.136;2023-04-19T07:37:06;102843.97;;;11.05;49.82
64200;BME280;50516;52.272;5.136;2023-04-19T07:39:32;102834.53;;;10.94;49.44
64200;BME280;50516;52.272;5.136;2023-04-19T07:41:57;102832.88;;;10.93;49.01
64200;BME280;50516;52.272;5.136;2023-04-19T07:44:23;102840.50;;;10.91;48.28
64200;BME280;50516;52.272;5.136;2023-04-19T07:46:48;102831.63;;;10.89;48.22
64200;BME280;50516;52.272;5.136;2023-04-19T07:49:14;102836.38;;;11.01;48.36
64200;BME280;50516;52.272;5.136;2023-04-19T07:51:39;102825.13;;;11.27;48.71
64200;BME280;50516;52.272;5.136;2023-04-19T07:54:05;102837.44;;;11.43;48.02
64200;BME280;50516;52.272;5.136;2023-04-19T07:56:31;102843.13;;;11.23;47.32
64200;BME280;50516;52.272;5.136;2023-04-19T07:58:57;102836.44;;;11.19;47.92
64200;BME280;50516;52.272;5.136;2023-04-19T08:01:22;102837.50;;;11.18;47.99
64200;BME280;50516;52.272;5.136;2023-04-19T08:03:48;102839.19;;;11.19;47.45
64200;BME280;50516;52.272;5.136;2023-04-19T08:06:13;102834.66;;;11.25;47.25
64200;BME280;50516;52.272;5.136;2023-04-19T08:08:38;102836.81;;;11.23;46.99
64200;BME280;50516;52.272;5.136;2023-04-19T08:11:04;102844.03;;;11.17;46.75
64200;BME280;50516;52.272;5.136;2023-04-19T08:13:30;102841.22;;;11.24;47.12
64200;BME280;50516;52.272;5.136;2023-04-19T08:15:55;102846.44;;;11.32;46.81
64200;BME280;50516;52.272;5.136;2023-04-19T08:18:21;102837.56;;;11.30;45.53
64200;BME280;50516;52.272;5.136;2023-04-19T08:20:46;102838.81;;;11.34;45.85
64200;BME280;50516;52.272;5.136;2023-04-19T08:23:12;102836.34;;;11.63;45.31
64200;BME280;50516;52.272;5.136;2023-04-19T08:25:38;102836.63;;;11.73;44.83
64200;BME280;50516;52.272;5.136;2023-04-19T08:28:03;102840.91;;;11.69;44.62
64200;BME280;50516;52.272;5.136;2023-04-19T08:30:29;102832.06;;;11.67;44.15
64200;BME280;50516;52.272;5.136;2023-04-19T08:32:54;102841.69;;;11.76;44.33
64200;BME280;50516;52.272;5.136;2023-04-19T08:35:20;102827.22;;;11.99;43.72
64200;BME280;50516;52.272;5.136;2023-04-19T08:37:46;102834.34;;;11.88;43.03
64200;BME280;50516;52.272;5.136;2023-04-19T08:40:12;102828.84;;;11.70;43.17
64200;BME280;50516;52.272;5.136;2023-04-19T08:42:38;102821.03;;;11.67;43.37
64200;BME280;50516;52.272;5.136;2023-04-19T08:45:04;102825.94;;;11.65;43.36
64200;BME280;50516;52.272;5.136;2023-04-19T08:47:32;102821.72;;;11.81;43.36
64200;BME280;50516;52.272;5.136;2023-04-19T08:49:59;102828.22;;;12.05;43.51
64200;BME280;50516;52.272;5.136;2023-04-19T08:52:26;102831.34;;;12.20;43.53
64200;BME280;50516;52.272;5.136;2023-04-19T08:54:53;102828.09;;;12.12;43.18
64200;BME280;50516;52.272;5.136;2023-04-19T08:57:19;102834.34;;;12.19;42.89
64200;BME280;50516;52.272;5.136;2023-04-19T08:59:44;102828.94;;;12.12;42.56
64200;BME280;50516;52.272;5.136;2023-04-19T09:02:13;102825.63;;;11.92;41.89
64200;BME280;50516;52.272;5.136;2023-04-19T09:04:39;102823.63;;;11.99;41.98
64200;BME280;50516;52.272;5.136;2023-04-19T09:07:05;102825.47;;;12.17;41.31
64200;BME280;50516;52.272;5.136;2023-04-19T09:09:32;102823.03;;;12.39;41.09
64200;BME280;50516;52.272;5.136;2023-04-19T09:11:58;102815.84;;;12.50;40.61
64200;BME280;50516;52.272;5.136;2023-04-19T09:14:25;102822.75;;;12.29;39.41
64200;BME280;50516;52.272;5.136;2023-04-19T09:16:50;102823.22;;;12.26;40.02
64200;BME280;50516;52.272;5.136;2023-04-19T09:19:18;102817.63;;;12.32;39.50
64200;BME280;50516;52.272;5.136;2023-04-19T09:21:45;102824.63;;;12.58;39.34
64200;BME280;50516;52.272;5.136;2023-04-19T09:24:10;102815.94;;;12.31;38.79
64200;BME280;50516;52.272;5.136;2023-04-19T09:26:36;102823.16;;;12.32;39.06
64200;BME280;50516;52.272;5.136;2023-04-19T09:29:03;102813.69;;;12.40;38.82
64200;BME280;50516;52.272;5.136;2023-04-19T09:31:33;102818.00;;;12.36;39.15
64200;BME280;50516;52.272;5.136;2023-04-19T09:34:31;102804.22;;;12.48;39.61
64200;BME280;50516;52.272;5.136;2023-04-19T09:36:56;102818.59;;;12.50;40.23
64200;BME280;50516;52.272;5.136;2023-04-19T09:39:31;102817.88;;;12.42;40.62
64200;BME280;50516;52.272;5.136;2023-04-19T09:41:57;102811.78;;;12.52;40.75
64200;BME280;50516;52.272;5.136;2023-04-19T09:44:23;102805.09;;;12.72;40.67
64200;BME280;50516;52.272;5.136;2023-04-19T09:46:48;102794.06;;;12.72;40.03
64200;BME280;50516;52.272;5.136;2023-04-19T09:51:52;102801.16;;;12.79;40.45
64200;BME280;50516;52.272;5.136;2023-04-19T09:54:19;102795.50;;;12.63;40.55
64200;BME280;50516;52.272;5.136;2023-04-19T09:56:46;102807.16;;;12.76;41.10
64200;BME280;50516;52.272;5.136;2023-04-19T09:59:12;102810.38;;;12.73;40.67
64200;BME280;50516;52.272;5.136;2023-04-19T10:01:43;102798.63;;;12.78;40.74
64200;BME280;50516;52.272;5.136;2023-04-19T10:04:11;102799.00;;;12.58;40.13
64200;BME280;50516;52.272;5.136;2023-04-19T10:06:38;102788.91;;;12.75;40.28
64200;BME280;50516;52.272;5.136;2023-04-19T10:09:05;102794.81;;;12.79;38.92
64200;BME280;50516;52.272;5.136;2023-04-19T10:11:32;102801.88;;;12.63;39.21
64200;BME280;50516;52.272;5.136;2023-04-19T10:14:07;102804.22;;;12.48;38.59
64200;BME280;50516;52.272;5.136;2023-04-19T10:16:34;102787.13;;;12.57;38.50
64200;BME280;50516;52.272;5.136;2023-04-19T10:19:03;102773.59;;;12.79;39.01
64200;BME280;50516;52.272;5.136;2023-04-19T10:21:29;102782.44;;;12.93;39.00
64200;BME280;50516;52.272;5.136;2023-04-19T10:23:56;102782.34;;;13.00;38.62
64200;BME280;50516;52.272;5.136;2023-04-19T10:26:22;102775.13;;;12.99;38.94
64200;BME280;50516;52.272;5.136;2023-04-19T10:28:47;102768.25;;;13.25;38.80
64200;BME280;50516;52.272;5.136;2023-04-19T10:31:13;102774.28;;;13.34;37.96
64200;BME280;50516;52.272;5.136;2023-04-19T10:33:39;102769.97;;;13.03;37.61
64200;BME280;50516;52.272;5.136;2023-04-19T10:36:09;102770.94;;;13.08;38.20
64200;BME280;50516;52.272;5.136;2023-04-19T10:41:03;102762.19;;;13.00;37.93
64200;BME280;50516;52.272;5.136;2023-04-19T10:43:30;102762.19;;;13.11;37.06
64200;BME280;50516;52.272;5.136;2023-04-19T10:48:31;102767.19;;;13.26;36.62
64200;BME280;50516;52.272;5.136;2023-04-19T10:51:14;102774.03;;;13.12;36.41
64200;BME280;50516;52.272;5.136;2023-04-19T10:56:58;102785.44;;;13.04;37.51
64200;BME280;50516;52.272;5.136;2023-04-19T10:59:25;102768.16;;;13.20;37.65
64200;BME280;50516;52.272;5.136;2023-04-19T11:01:52;102756.13;;;13.50;37.78
64200;BME280;50516;52.272;5.136;2023-04-19T11:04:56;102751.28;;;13.57;36.43
64200;BME280;50516;52.272;5.136;2023-04-19T11:07:09;102758.25;;;13.48;35.33
64200;BME280;50516;52.272;5.136;2023-04-19T11:09:39;102754.66;;;13.47;35.14
64200;BME280;50516;52.272;5.136;2023-04-19T11:12:13;102731.66;;;13.30;35.47
64200;BME280;50516;52.272;5.136;2023-04-19T11:14:41;102738.75;;;13.38;35.26
64200;BME280;50516;52.272;5.136;2023-04-19T11:17:17;102732.53;;;13.59;35.52
64200;BME280;50516;52.272;5.136;2023-04-19T11:20:06;102736.03;;;13.55;35.15
64200;BME280;50516;52.272;5.136;2023-04-19T11:22:37;102733.81;;;13.40;34.80
64200;BME280;50516;52.272;5.136;2023-04-19T11:25:11;102715.84;;;13.37;34.92
64200;BME280;50516;52.272;5.136;2023-04-19T11:27:38;102713.19;;;13.30;34.83
64200;BME280;50516;52.272;5.136;2023-04-19T11:30:08;102712.31;;;13.54;35.30
64200;BME280;50516;52.272;5.136;2023-04-19T11:32:34;102711.00;;;13.73;35.05
64200;BME280;50516;52.272;5.136;2023-04-19T11:35:07;102719.38;;;13.78;34.11
64200;BME280;50516;52.272;5.136;2023-04-19T11:37:37;102719.44;;;13.66;32.93
64200;BME280;50516;52.272;5.136;2023-04-19T11:40:04;102708.75;;;13.70;33.24
64200;BME280;50516;52.272;5.136;2023-04-19T11:42:30;102716.66;;;13.95;33.51
64200;BME280;50516;52.272;5.136;2023-04-19T11:44:56;102702.22;;;13.93;33.00
64200;BME280;50516;52.272;5.136;2023-04-19T11:47:23;102715.38;;;13.86;32.01
64200;BME280;50516;52.272;5.136;2023-04-19T11:49:49;102694.78;;;13.77;32.51
64200;BME280;50516;52.272;5.136;2023-04-19T11:52:24;102699.25;;;14.12;32.46
64200;BME280;50516;52.272;5.136;2023-04-19T11:54:51;102697.31;;;13.95;31.60
64200;BME280;50516;52.272;5.136;2023-04-19T11:57:27;102679.06;;;13.94;31.85
64200;BME280;50516;52.272;5.136;2023-04-19T12:00:06;102687.59;;;14.10;31.95
64200;BME280;50516;52.272;5.136;2023-04-19T12:02:39;102684.25;;;14.07;31.72
64200;BME280;50516;52.272;5.136;2023-04-19T12:05:12;102694.81;;;14.11;32.26
64200;BME280;50516;52.272;5.136;2023-04-19T12:08:06;102676.81;;;14.25;32.06
64200;BME280;50516;52.272;5.136;2023-04-19T12:10:35;102675.22;;;14.29;31.21
64200;BME280;50516;52.272;5.136;2023-04-19T12:13:15;102677.97;;;14.29;30.84
64200;BME280;50516;52.272;5.136;2023-04-19T12:15:45;102681.91;;;14.33;31.32
64200;BME280;50516;52.272;5.136;2023-04-19T12:18:11;102686.91;;;14.36;31.13
64200;BME280;50516;52.272;5.136;2023-04-19T12:20:42;102686.34;;;14.17;30.79
64200;BME280;50516;52.272;5.136;2023-04-19T12:23:07;102690.28;;;14.04;30.69
64200;BME280;50516;52.272;5.136;2023-04-19T12:25:35;102699.66;;;14.03;31.27
64200;BME280;50516;52.272;5.136;2023-04-19T12:28:02;102685.34;;;13.90;31.24
64200;BME280;50516;52.272;5.136;2023-04-19T12:30:27;102682.00;;;14.04;31.80
64200;BME280;50516;52.272;5.136;2023-04-19T12:32:53;102682.44;;;14.13;31.73
64200;BME280;50516;52.272;5.136;2023-04-19T12:35:23;102680.25;;;14.15;31.73
64200;BME280;50516;52.272;5.136;2023-04-19T12:37:50;102655.13;;;14.17;30.81
64200;BME280;50516;52.272;5.136;2023-04-19T12:40:15;102674.38;;;14.29;31.78
64200;BME280;50516;52.272;5.136;2023-04-19T12:42:41;102671.03;;;14.27;31.89
64200;BME280;50516;52.272;5.136;2023-04-19T12:45:06;102656.72;;;14.13;32.36
64200;BME280;50516;52.272;5.136;2023-04-19T12:47:32;102665.09;;;14.18;32.87
64200;BME280;50516;52.272;5.136;2023-04-19T12:49:57;102660.28;;;14.30;33.25
64200;BME280;50516;52.272;5.136;2023-04-19T12:52:23;102671.78;;;14.22;33.17
64200;BME280;50516;52.272;5.136;2023-04-19T12:54:48;102661.16;;;14.14;33.25
64200;BME280;50516;52.272;5.136;2023-04-19T12:57:13;102656.47;;;14.14;32.98
64200;BME280;50516;52.272;5.136;2023-04-19T12:59:39;102638.13;;;14.08;33.10
64200;BME280;50516;52.272;5.136;2023-04-19T13:02:05;102648.09;;;14.26;33.20